Time;durP1;ratioP1;P1;durP2;ratioP2;P2;SDS_P1;SDS_P2;PMS_P1;PMS_P2;Temp;Humidity;BMP_temperature;BMP_pressure;BME280_temperature;BME280_humidity;BME280_pressure;Samples;Min_cycle;Max_cycle;Signal;HPM_P1;HPM_P2
2022/11/07 00:00:39;;;;;;;3.30;3.00;;;;;;;10.36;72.80;98703.56;5075042;28;41349;-78
2022/11/07 00:03:06;;;;;;;3.67;3.17;;;;;;;10.40;72.38;98701.53;5075126;28;43446;-78
2022/11/07 00:05:34;;;;;;;4.53;3.80;;;;;;;10.44;72.28;98709.22;5074919;28;40987;-77
2022/11/07 00:08:01;;;;;;;3.90;3.23;;;;;;;10.47;72.29;98709.97;5074456;28;40163;-76
2022/11/07 00:10:29;;;;;;;4.63;3.17;;;;;;;10.51;72.84;98703.53;5092784;28;41814;-81
2022/11/07 00:12:58;;;;;;;3.50;2.93;;;;;;;10.55;72.62;98708.50;5092046;28;43213;-79
2022/11/07 00:15:26;;;;;;;3.47;2.67;;;;;;;10.58;72.57;98710.97;5091846;28;42959;-76
2022/11/07 00:17:53;;;;;;;4.13;2.77;;;;;;;10.55;72.03;98699.72;5092233;28;40849;-76
2022/11/07 00:20:21;;;;;;;3.43;3.13;;;;;;;10.60;71.92;98708.22;5092241;28;41453;-77
2022/11/07 00:22:48;;;;;;;2.67;2.47;;;;;;;10.71;72.10;98718.97;5092105;28;43572;-78
2022/11/07 00:25:16;;;;;;;3.20;2.90;;;;;;;10.67;71.94;98712.16;5091823;28;42381;-79
2022/11/07 00:27:43;;;;;;;3.47;3.00;;;;;;;10.78;71.80;98731.69;5090882;28;40050;-78
2022/11/07 00:30:13;;;;;;;3.83;2.40;;;;;;;10.82;71.81;98732.34;5074764;28;40018;-79
2022/11/07 00:32:41;;;;;;;3.17;2.60;;;;;;;10.76;72.06;98720.34;5074181;28;41601;-79
2022/11/07 00:35:09;;;;;;;2.57;2.20;;;;;;;10.89;71.91;98733.63;5091490;28;43157;-76
2022/11/07 00:37:36;;;;;;;2.37;2.17;;;;;;;10.93;71.74;98737.78;5090944;28;40938;-78
2022/11/07 00:40:05;;;;;;;2.67;2.13;;;;;;;10.97;71.59;98739.31;5074748;28;40939;-79
2022/11/07 00:42:32;;;;;;;3.27;2.60;;;;;;;11.00;71.71;98739.06;5091307;28;42950;-76
2022/11/07 00:45:00;;;;;;;2.63;2.43;;;;;;;11.03;71.55;98738.88;5091228;28;42325;-77
2022/11/07 00:47:29;;;;;;;3.20;2.50;;;;;;;11.01;71.82;98738.13;5074281;28;40579;-77
2022/11/07 00:49:57;;;;;;;2.07;1.90;;;;;;;11.09;71.43;98749.09;5074328;28;40974;-79
2022/11/07 00:52:24;;;;;;;2.93;2.47;;;;;;;11.12;71.68;98754.19;5074241;28;41749;-77
2022/11/07 00:54:52;;;;;;;2.40;2.20;;;;;;;11.15;71.73;98747.81;5091168;28;42116;-78
2022/11/07 00:57:19;;;;;;;2.60;2.40;;;;;;;11.17;71.64;98751.22;5074263;28;39653;-79
2022/11/07 00:59:47;;;;;;;3.73;2.67;;;;;;;11.19;71.22;98749.31;5091074;28;41795;-76
2022/11/07 01:02:14;;;;;;;4.37;2.27;;;;;;;11.23;71.58;98752.63;5091335;28;42929;-78
2022/11/07 01:07:28;;;;;;;2.80;2.50;;;;;;;11.24;71.37;98735.78;5090703;28;39592;-78
2022/11/07 08:33:30;;;;;;;2.00;1.30;;;;;;;14.44;76.59;98892.34;5235017;27;20557;-85
2022/11/07 08:35:59;;;;;;;2.67;1.27;;;;;;;14.93;75.19;98905.31;5194305;27;39476;-79
2022/11/07 08:38:27;;;;;;;3.03;1.47;;;;;;;15.26;71.58;98893.75;5177220;27;40751;-83
2022/11/07 08:40:54;;;;;;;4.07;1.67;;;;;;;15.73;69.92;98921.06;5213225;27;42802;-76
2022/11/07 08:43:23;;;;;;;4.07;1.60;;;;;;;15.89;68.51;98929.53;5194714;27;40970;-78
2022/11/07 08:45:52;;;;;;;2.40;1.60;;;;;;;16.03;67.85;98931.03;5213295;27;40751;-83
2022/11/07 08:48:20;;;;;;;3.43;1.60;;;;;;;16.18;67.09;98935.13;5177264;27;41035;-81
2022/11/07 08:50:53;;;;;;;3.03;1.73;;;;;;;16.37;66.77;98935.25;5195380;27;42753;-85
2022/11/07 08:53:21;;;;;;;1.87;1.27;;;;;;;16.48;65.27;98942.34;5157652;27;41001;-76
2022/11/07 08:55:48;;;;;;;1.87;1.43;;;;;;;16.58;65.19;98926.34;5211852;27;40109;-77
2022/11/07 08:58:16;;;;;;;2.70;1.40;;;;;;;16.81;64.94;98928.75;5194855;27;41478;-82
2022/11/07 09:00:44;;;;;;;3.87;1.33;;;;;;;17.00;63.03;98927.16;5194446;27;41786;-88
2022/11/07 09:03:12;;;;;;;2.73;1.67;;;;;;;17.32;62.38;98927.84;5212995;27;42317;-85
2022/11/07 09:05:40;;;;;;;2.90;1.43;;;;;;;17.60;62.62;98929.75;5158708;27;39981;-79
2022/11/07 09:08:09;;;;;;;3.10;1.53;;;;;;;17.89;60.25;98937.84;5173260;27;40801;-81
2022/11/07 09:10:36;;;;;;;2.77;1.53;;;;;;;18.16;59.93;98929.13;5189749;27;41337;-76
2022/11/07 09:13:04;;;;;;;3.00;1.40;;;;;;;18.32;57.90;98923.16;5212883;27;41946;-82
2022/11/07 09:15:32;;;;;;;2.97;1.30;;;;;;;18.64;57.74;98944.31;5193614;27;38381;-80
2022/11/07 09:18:02;;;;;;;2.43;1.50;;;;;;;18.90;57.14;98949.91;5177664;27;41472;-77
2022/11/07 09:20:30;;;;;;;3.20;1.57;;;;;;;19.05;56.75;98958.31;5177955;27;42589;-79
2022/11/07 09:22:58;;;;;;;2.30;1.43;;;;;;;19.09;55.72;98948.97;5172452;27;42472;-77
2022/11/07 09:25:28;;;;;;;3.90;1.37;;;;;;;19.09;54.87;98965.09;5171454;27;39925;-81
2022/11/07 09:27:57;;;;;;;2.10;1.33;;;;;;;19.08;55.49;98949.97;5178274;27;41849;-80
2022/11/07 09:30:24;;;;;;;3.43;1.43;;;;;;;19.15;55.47;98951.09;5160498;27;42906;-79
2022/11/07 09:32:55;;;;;;;3.17;1.37;;;;;;;19.25;54.42;98965.31;5154862;27;40997;-79
2022/11/07 09:35:22;;;;;;;2.00;1.20;;;;;;;19.30;53.76;98973.75;5172336;27;38658;-78
2022/11/07 09:37:51;;;;;;;4.70;1.87;;;;;;;19.11;53.95;98947.84;5172665;27;42267;-79
2022/11/07 09:40:26;;;;;;;3.23;1.93;;;;;;;19.20;54.21;98963.06;5205386;27;42682;-78
2022/11/07 09:43:09;;;;;;;4.60;1.73;;;;;;;19.56;54.13;98963.19;5209101;27;42230;-80
2022/11/07 09:45:43;;;;;;;3.07;1.60;;;;;;;19.93;52.52;98952.34;5145127;27;38960;-79
2022/11/07 09:48:17;;;;;;;3.63;1.40;;;;;;;20.73;50.69;98991.78;5177374;27;41779;-80
2022/11/07 09:50:48;;;;;;;4.50;1.40;;;;;;;20.96;49.41;98992.94;5173231;27;43458;-84
2022/11/07 09:53:23;;;;;;;3.47;1.30;;;;;;;21.26;49.29;98982.72;5179418;27;42395;-78
2022/11/07 09:55:53;;;;;;;4.03;1.30;;;;;;;21.71;48.19;99002.13;5160253;27;38747;-80
2022/11/07 09:58:28;;;;;;;2.47;1.40;;;;;;;21.50;48.64;99004.41;5140990;27;41454;-78
2022/11/07 10:01:00;;;;;;;2.57;1.33;;;;;;;21.15;49.49;98992.72;5157584;27;41737;-77
2022/11/07 10:03:28;;;;;;;2.67;1.77;;;;;;;20.77;49.83;98991.28;5141011;27;41046;-78
2022/11/07 10:06:06;;;;;;;4.43;1.33;;;;;;;20.40;50.48;98980.72;5177462;27;40802;-80
2022/11/07 10:08:41;;;;;;;2.07;1.50;;;;;;;20.63;49.96;98985.66;5194983;27;41896;-80
2022/11/07 10:11:15;;;;;;;2.97;1.53;;;;;;;20.57;49.63;98991.63;5194802;27;42574;-78
2022/11/07 10:13:54;;;;;;;3.20;1.27;;;;;;;20.50;49.27;98990.59;5175997;27;42136;-82
2022/11/07 10:16:33;;;;;;;3.10;1.40;;;;;;;20.43;49.87;98985.81;5176663;27;40439;-81
2022/11/07 10:19:16;;;;;;;3.87;1.40;;;;;;;20.25;50.44;98976.03;5178944;27;40837;-77
2022/11/07 10:21:51;;;;;;;3.03;1.67;;;;;;;20.12;50.38;98987.19;5177377;27;42791;-80
2022/11/07 10:24:34;;;;;;;2.53;1.27;;;;;;;19.85;50.78;98974.63;5175469;27;42243;-80
2022/11/07 10:27:02;;;;;;;1.83;1.33;;;;;;;19.76;51.30;98969.31;5161116;27;38696;-84
2022/11/07 10:29:39;;;;;;;3.33;1.30;;;;;;;19.79;51.40;98963.63;5177995;27;41610;-81
2022/11/07 10:32:16;;;;;;;4.63;1.40;;;;;;;19.93;50.25;98936.22;5176666;27;42705;-84
2022/11/07 10:34:47;;;;;;;3.70;1.47;;;;;;;21.09;49.19;98982.59;5178279;27;42597;-79
2022/11/07 10:37:15;;;;;;;3.27;1.20;;;;;;;22.07;46.62;98972.25;5160865;27;40095;-76
2022/11/07 10:39:43;;;;;;;2.50;1.50;;;;;;;22.89;45.50;98979.38;5160226;27;40722;-80
2022/11/07 10:42:15;;;;;;;4.77;1.50;;;;;;;23.38;43.56;98998.16;5197341;27;42964;-79
2022/11/07 10:44:46;;;;;;;3.43;1.37;;;;;;;23.56;43.35;98994.25;5175637;27;41024;-78
2022/11/07 10:47:17;;;;;;;2.30;1.20;;;;;;;23.25;43.83;98991.44;5178903;27;39848;-80
2022/11/07 10:49:57;;;;;;;2.50;1.20;;;;;;;22.69;44.93;98986.97;5175001;27;41858;-80
2022/11/07 10:52:26;;;;;;;2.87;1.40;;;;;;;22.15;45.31;98985.75;5178244;27;42895;-79
2022/11/07 10:55:06;;;;;;;3.57;1.20;;;;;;;21.61;46.35;98977.16;5158921;27;42673;-79
2022/11/07 10:57:35;;;;;;;5.97;1.43;;;;;;;21.08;46.35;98980.91;5178031;27;39956;-78
2022/11/07 11:00:20;;;;;;;2.43;1.23;;;;;;;20.62;47.70;98989.34;5160266;27;40782;-76
2022/11/07 11:02:49;;;;;;;3.97;1.30;;;;;;;20.20;48.32;98972.97;5160508;27;41670;-78
2022/11/07 11:05:22;;;;;;;3.00;1.60;;;;;;;19.72;49.18;98955.34;5196438;27;43117;-81
2022/11/07 11:07:49;;;;;;;4.77;1.57;;;;;;;19.55;50.53;98956.97;5160798;27;39197;-80
2022/11/07 11:10:19;;;;;;;3.00;1.17;;;;;;;19.46;51.11;98947.09;5163514;27;41367;-83
2022/11/07 11:12:48;;;;;;;3.97;1.20;;;;;;;19.70;51.18;98950.09;5157022;27;42980;-84
2022/11/07 11:15:19;;;;;;;2.17;1.20;;;;;;;20.42;49.90;98967.97;5189391;27;42226;-82
2022/11/07 11:17:56;;;;;;;2.20;1.17;;;;;;;20.53;49.48;98956.13;5160429;27;42070;-81
2022/11/07 11:20:31;;;;;;;2.13;1.20;;;;;;;20.46;49.79;98959.59;5160313;27;40967;-77
2022/11/07 11:23:00;;;;;;;2.57;1.07;;;;;;;20.19;50.16;98949.75;5196522;27;44175;-79
2022/11/07 11:25:28;;;;;;;3.87;1.50;;;;;;;19.89;50.83;98942.94;5177469;27;43126;-81
2022/11/07 11:28:01;;;;;;;1.97;1.10;;;;;;;19.56;52.28;98944.41;5160312;27;38952;-79
2022/11/07 11:30:32;;;;;;;4.23;1.50;;;;;;;19.22;53.05;98944.13;5177317;27;40274;-78
2022/11/07 11:33:07;;;;;;;2.80;1.10;;;;;;;18.86;53.54;98922.50;5196095;27;43623;-78
2022/11/07 11:35:40;;;;;;;3.13;1.20;;;;;;;18.48;55.20;98922.56;5157362;27;43143;-79
2022/11/07 11:38:14;;;;;;;2.27;1.27;;;;;;;18.17;56.83;98929.97;5156911;27;38829;-80
2022/11/07 11:40:48;;;;;;;3.60;1.40;;;;;;;17.83;58.33;98927.69;5153408;27;41963;-78
2022/11/07 11:43:19;;;;;;;2.60;1.13;;;;;;;17.45;59.29;98917.72;5156522;27;41777;-81
2022/11/07 11:46:03;;;;;;;4.33;1.43;;;;;;;17.31;60.62;98915.44;5171750;27;42526;-77
2022/11/07 11:48:38;;;;;;;3.43;1.40;;;;;;;17.15;62.13;98910.63;5177058;27;38751;-77
2022/11/07 11:51:12;;;;;;;5.57;1.50;;;;;;;17.08;61.91;98904.09;5139029;27;41105;-75
2022/11/07 11:53:39;;;;;;;3.07;1.30;;;;;;;17.20;62.49;98907.50;5156474;27;43225;-77
2022/11/07 11:56:24;;;;;;;5.33;1.50;;;;;;;17.26;62.08;98901.63;5177031;27;42790;-78
2022/11/07 11:59:03;;;;;;;9.00;1.40;;;;;;;17.40;61.54;98901.25;5171853;27;40513;-77
2022/11/07 12:01:41;;;;;;;3.73;1.20;;;;;;;17.79;60.90;98906.69;5138808;27;42492;-79
2022/11/07 12:04:48;;;;;;;5.00;2.20;;;;;;;18.35;59.49;98895.22;5155655;27;44512;-81
2022/11/07 12:07:36;;;;;;;2.27;1.10;;;;;;;20.99;54.83;98922.63;5089503;28;42806;-78
2022/11/07 12:10:12;;;;;;;2.60;1.00;;;;;;;23.64;48.36;98956.38;5140598;27;40612;-78
2022/11/07 12:12:52;;;;;;;4.37;1.10;;;;;;;24.83;45.33;98976.72;5155848;27;42140;-80
2022/11/07 12:15:45;;;;;;;1.67;0.83;;;;;;;24.81;42.78;98978.75;5170096;27;41952;-81
2022/11/07 12:18:23;;;;;;;3.50;1.23;;;;;;;24.05;43.17;98982.34;5176462;27;42238;-78
2022/11/07 12:21:02;;;;;;;2.63;1.30;;;;;;;23.22;43.63;98959.38;5192253;27;39637;-78
2022/11/07 12:23:48;;;;;;;3.77;1.37;;;;;;;22.30;44.80;98938.22;5176210;27;41180;-82
2022/11/07 12:26:24;;;;;;;2.00;1.00;;;;;;;21.80;46.45;98966.09;5155311;27;42205;-81
2022/11/07 12:29:02;;;;;;;2.23;1.17;;;;;;;21.01;47.69;98942.16;5157146;27;41040;-82
2022/11/07 12:31:43;;;;;;;3.00;1.30;;;;;;;20.62;48.23;98967.81;5159584;27;38853;-79
2022/11/07 12:34:34;;;;;;;4.20;1.93;;;;;;;19.99;49.18;98947.22;5173604;27;41577;-81
2022/11/07 12:37:16;;;;;;;2.57;1.13;;;;;;;19.51;50.15;98928.75;5164363;27;42824;-79
2022/11/07 12:40:04;;;;;;;3.47;1.53;;;;;;;19.22;51.28;98917.28;5192267;27;42822;-79
2022/11/07 12:42:44;;;;;;;2.43;1.20;;;;;;;19.21;51.44;98937.06;5159367;27;38977;-78
2022/11/07 12:45:21;;;;;;;2.93;1.50;;;;;;;19.29;51.48;98929.09;5173170;27;42027;-79
2022/11/07 12:48:14;;;;;;;3.13;1.37;;;;;;;19.47;51.49;98931.84;5158880;27;41517;-82
2022/11/07 12:50:51;;;;;;;3.80;1.40;;;;;;;19.60;51.30;98922.47;5174131;27;42269;-79
2022/11/07 12:53:31;;;;;;;2.83;1.40;;;;;;;19.85;51.04;98917.34;5138222;27;40779;-78
2022/11/07 12:56:05;;;;;;;3.30;1.63;;;;;;;20.04;50.27;98925.25;5153855;27;42171;-77
2022/11/07 12:58:35;;;;;;;3.27;1.03;;;;;;;20.16;50.78;98925.84;5170310;27;42695;-76
2022/11/07 13:01:06;;;;;;;3.60;1.40;;;;;;;20.15;50.36;98925.03;5171072;27;42001;-83
2022/11/07 13:03:51;;;;;;;3.60;1.30;;;;;;;20.12;50.39;98924.50;5155400;27;39742;-79
2022/11/07 13:06:26;;;;;;;3.23;1.30;;;;;;;20.16;50.08;98926.69;5171137;27;42237;-79
2022/11/07 13:09:02;;;;;;;3.80;1.50;;;;;;;20.29;50.25;98924.44;5172912;27;42564;-89
2022/11/07 13:11:38;;;;;;;4.13;1.27;;;;;;;20.42;49.94;98935.69;5158930;27;41084;-80
2022/11/07 13:14:26;;;;;;;2.10;1.20;;;;;;;20.36;49.86;98922.88;5175789;27;41552;-83
2022/11/07 13:17:04;;;;;;;3.23;1.37;;;;;;;20.31;50.00;98922.47;5176121;27;40647;-80
2022/11/07 13:19:33;;;;;;;3.07;1.30;;;;;;;20.25;50.12;98912.34;5160916;27;44331;-78
2022/11/07 13:22:04;;;;;;;2.93;1.23;;;;;;;20.15;49.90;98910.75;5179516;27;41367;-76
2022/11/07 13:24:38;;;;;;;3.87;1.67;;;;;;;19.92;50.39;98904.97;5176278;27;40099;-76
2022/11/07 13:27:20;;;;;;;3.47;1.20;;;;;;;20.16;50.51;98924.00;5162387;27;40708;-77
2022/11/07 13:29:51;;;;;;;2.13;1.40;;;;;;;20.11;49.80;98907.50;5184890;27;43693;-80
2022/11/07 13:32:19;;;;;;;3.57;1.60;;;;;;;20.08;50.12;98905.97;5175953;27;42271;-86
2022/11/07 13:34:54;;;;;;;2.43;1.07;;;;;;;19.95;50.07;98893.91;5187186;27;41018;-79
2022/11/07 13:37:27;;;;;;;2.43;1.13;;;;;;;19.96;50.79;98903.66;5178741;27;41467;-80
2022/11/07 13:40:00;;;;;;;3.30;1.03;;;;;;;19.83;51.13;98905.88;5176434;27;43076;-80
2022/11/07 13:42:30;;;;;;;3.67;1.37;;;;;;;19.73;51.66;98897.91;5179581;27;41715;-77
2022/11/07 13:45:07;;;;;;;3.13;1.07;;;;;;;19.65;51.98;98874.50;5179415;27;38665;-79
2022/11/07 13:47:41;;;;;;;1.73;1.10;;;;;;;19.94;51.21;98903.81;5178822;27;42782;-79
2022/11/07 13:50:21;;;;;;;2.73;1.33;;;;;;;20.06;51.05;98899.06;5178825;27;42028;-79
2022/11/07 13:52:57;;;;;;;3.17;1.07;;;;;;;19.90;50.95;98893.53;5161983;27;41195;-80
2022/11/07 13:55:30;;;;;;;2.00;1.17;;;;;;;19.80;51.33;98893.59;5161904;27;39523;-76
2022/11/07 13:58:02;;;;;;;3.63;1.53;;;;;;;19.67;51.84;98887.75;5178865;27;41737;-83
2022/11/07 14:00:33;;;;;;;3.53;1.30;;;;;;;19.46;52.10;98882.66;5195467;27;43528;-78
2022/11/07 14:03:01;;;;;;;3.67;1.63;;;;;;;19.50;52.01;98893.97;5198433;27;42666;-79
2022/11/07 14:05:33;;;;;;;5.27;1.47;;;;;;;19.70;51.86;98899.06;5178761;27;39459;-78
2022/11/07 14:08:05;;;;;;;4.60;1.17;;;;;;;19.93;51.64;98895.91;5178938;27;41676;-79
2022/11/07 14:10:38;;;;;;;3.67;1.30;;;;;;;20.01;51.49;98904.91;5179376;27;43950;-81
2022/11/07 14:13:09;;;;;;;3.03;1.70;;;;;;;20.13;50.46;98913.59;5162751;27;42031;-77
2022/11/07 14:15:45;;;;;;;4.20;1.33;;;;;;;20.13;51.03;98918.97;5179236;27;39075;-80
2022/11/07 14:18:17;;;;;;;2.87;1.30;;;;;;;19.91;51.29;98908.66;5197942;27;41626;-81
2022/11/07 14:20:48;;;;;;;4.30;1.20;;;;;;;19.69;51.32;98916.16;5160989;27;42111;-79
2022/11/07 14:23:20;;;;;;;2.83;1.10;;;;;;;19.45;51.78;98907.81;5161425;27;42520;-77
2022/11/07 14:25:55;;;;;;;3.87;1.20;;;;;;;19.08;52.20;98883.72;5178222;27;40840;-81
2022/11/07 14:28:22;;;;;;;2.83;1.20;;;;;;;18.68;52.76;98846.44;5160747;27;40752;-75
2022/11/07 14:30:52;;;;;;;3.27;1.30;;;;;;;18.82;53.24;98894.28;5178019;27;42777;-79
2022/11/07 14:33:21;;;;;;;2.43;1.40;;;;;;;18.63;53.43;98897.88;5196814;27;43249;-79
2022/11/07 14:35:51;;;;;;;4.73;1.47;;;;;;;18.46;53.95;98898.59;5160564;27;39890;-80
2022/11/07 14:38:24;;;;;;;3.70;1.47;;;;;;;18.24;54.33;98883.66;5177967;27;41655;-76
2022/11/07 14:40:52;;;;;;;3.43;1.13;;;;;;;18.10;54.64;98897.50;5160302;27;43550;-77
2022/11/07 14:43:23;;;;;;;5.00;1.70;;;;;;;17.97;54.91;98896.09;5178206;27;42219;-77
2022/11/07 14:45:58;;;;;;;2.17;1.13;;;;;;;17.65;55.89;98861.56;5159809;27;39745;-82
2022/11/07 14:48:27;;;;;;;3.63;1.30;;;;;;;17.68;56.22;98885.41;5178057;27;43157;-81
2022/11/07 14:50:55;;;;;;;3.10;1.20;;;;;;;17.54;56.21;98894.66;5160345;27;41911;-79
2022/11/07 14:53:28;;;;;;;6.47;1.50;;;;;;;17.37;56.80;98892.63;5178663;27;42293;-77
2022/11/07 14:55:59;;;;;;;4.43;1.43;;;;;;;17.23;57.30;98891.19;5177838;27;38675;-77
2022/11/07 14:58:29;;;;;;;5.73;1.60;;;;;;;17.08;57.84;98890.72;5175399;27;41640;-76
2022/11/07 15:01:09;;;;;;;3.03;1.50;;;;;;;16.98;58.35;98894.34;5177498;27;43226;-85
2022/11/07 15:03:49;;;;;;;4.60;1.40;;;;;;;16.91;58.40;98898.56;5175216;27;42028;-81
2022/11/07 15:06:24;;;;;;;3.63;1.47;;;;;;;16.87;58.51;98896.13;5178364;27;39005;-79
2022/11/07 15:09:01;;;;;;;4.10;1.27;;;;;;;16.77;59.08;98873.00;5160606;27;41793;-80
2022/11/07 15:11:32;;;;;;;6.50;1.40;;;;;;;16.80;58.93;98878.94;5194427;27;43090;-80
2022/11/07 15:14:02;;;;;;;7.60;1.53;;;;;;;16.68;59.04;98858.63;5174331;27;42446;-78
2022/11/07 15:16:36;;;;;;;2.63;1.50;;;;;;;16.73;59.29;98877.78;5178124;27;41008;-80
2022/11/07 15:19:07;;;;;;;3.27;1.53;;;;;;;16.69;59.33;98879.00;5177679;27;40655;-82
2022/11/07 15:21:37;;;;;;;4.07;1.93;;;;;;;16.57;59.41;98855.97;5160605;27;42002;-78
2022/11/07 15:24:41;;;;;;;5.20;2.00;;;;;;;16.60;59.76;98871.75;5177251;27;43146;-80
2022/11/07 15:27:19;;;;;;;4.30;2.20;;;;;;;16.57;60.24;98877.38;5177905;27;38654;-77
2022/11/07 15:29:52;;;;;;;7.10;1.73;;;;;;;16.52;60.09;98880.47;5174234;27;41614;-78
2022/11/07 15:32:22;;;;;;;3.60;1.73;;;;;;;16.46;60.42;98872.13;5179070;27;41548;-81
2022/11/07 15:34:51;;;;;;;2.30;1.57;;;;;;;16.42;60.62;98873.38;5149733;27;43088;-81
2022/11/07 15:37:21;;;;;;;6.40;1.90;;;;;;;16.37;60.64;98871.09;5156589;27;38813;-82
2022/11/07 15:39:50;;;;;;;4.17;1.60;;;;;;;16.19;60.89;98856.66;5166605;27;42896;-79
2022/11/07 15:42:18;;;;;;;1.97;1.43;;;;;;;16.22;61.53;98879.56;5159429;27;43224;-79
2022/11/07 15:44:45;;;;;;;4.33;1.70;;;;;;;16.09;61.36;98861.91;5160649;27;41133;-79
2022/11/07 15:47:17;;;;;;;4.13;1.50;;;;;;;16.17;61.27;98886.16;5177942;27;39844;-81
2022/11/07 15:49:45;;;;;;;3.07;1.40;;;;;;;16.03;61.11;98866.94;5193067;27;41790;-79
2022/11/07 15:52:13;;;;;;;4.80;1.50;;;;;;;16.10;61.37;98884.97;5196453;27;43410;-79
2022/11/07 15:54:41;;;;;;;4.17;1.50;;;;;;;16.07;61.39;98885.22;5150404;27;41153;-81
2022/11/07 15:57:12;;;;;;;2.23;1.40;;;;;;;16.04;61.47;98885.50;5139157;27;38531;-76
2022/11/07 15:59:40;;;;;;;4.10;1.90;;;;;;;15.98;62.09;98878.00;5164962;27;40666;-77
2022/11/07 16:02:15;;;;;;;4.10;1.90;;;;;;;15.93;62.67;98876.69;5195971;27;43545;-77
2022/11/07 16:04:43;;;;;;;5.23;1.90;;;;;;;15.88;62.30;98874.41;5150472;27;42248;-78
2022/11/07 16:07:16;;;;;;;4.17;1.90;;;;;;;15.85;62.59;98880.00;5138977;27;39698;-78
2022/11/07 16:09:44;;;;;;;6.60;2.10;;;;;;;15.80;63.39;98871.53;5148098;27;41071;-77
2022/11/07 16:12:15;;;;;;;4.70;2.47;;;;;;;15.77;63.76;98866.44;5159584;27;41929;-78
2022/11/07 16:14:43;;;;;;;4.57;2.27;;;;;;;15.76;63.49;98870.09;5159630;27;42456;-78
2022/11/07 16:17:12;;;;;;;4.27;2.47;;;;;;;15.68;64.05;98861.88;5159852;27;40043;-80
2022/11/07 16:19:40;;;;;;;4.87;1.93;;;;;;;15.70;63.81;98870.63;5159275;27;41540;-79
2022/11/07 16:22:10;;;;;;;7.57;3.23;;;;;;;15.67;64.31;98865.53;5176409;27;42816;-76
2022/11/07 16:24:38;;;;;;;5.77;1.80;;;;;;;15.64;64.32;98863.97;5159999;27;41940;-77
2022/11/07 16:27:06;;;;;;;6.20;1.80;;;;;;;15.60;64.72;98865.19;5196254;27;39981;-80
2022/11/07 16:29:35;;;;;;;5.10;1.70;;;;;;;15.16;64.62;98807.44;5195899;27;42658;-81
2022/11/07 16:32:03;;;;;;;4.17;1.70;;;;;;;15.53;65.04;98868.47;5195082;27;43209;-78
2022/11/07 16:34:31;;;;;;;4.20;1.50;;;;;;;15.51;64.81;98881.06;5195064;27;42896;-82
2022/11/07 16:36:58;;;;;;;3.03;1.47;;;;;;;15.50;65.00;98877.56;5176647;27;39897;-78
2022/11/07 16:39:26;;;;;;;2.63;1.40;;;;;;;15.40;64.59;98863.28;5176167;27;40576;-81
2022/11/07 16:41:53;;;;;;;6.13;2.23;;;;;;;15.49;65.21;98877.69;5195262;27;43221;-76
2022/11/07 16:44:22;;;;;;;3.23;1.50;;;;;;;15.48;65.35;98875.97;5176486;27;41340;-81
2022/11/07 16:46:52;;;;;;;3.57;1.87;;;;;;;15.46;65.17;98873.44;5176837;27;41226;-83
2022/11/07 16:49:28;;;;;;;5.53;2.00;;;;;;;15.40;65.23;98872.13;5153069;27;40849;-78
2022/11/07 16:51:55;;;;;;;3.33;2.07;;;;;;;15.43;65.29;98879.91;5154491;27;41681;-77
2022/11/07 16:54:23;;;;;;;3.67;1.80;;;;;;;15.42;65.46;98883.53;5176301;27;43258;-77
2022/11/07 16:56:51;;;;;;;4.50;2.00;;;;;;;15.41;65.32;98884.50;5142441;27;40003;-76
2022/11/07 16:59:22;;;;;;;4.47;2.07;;;;;;;15.39;65.84;98872.25;5142266;27;40689;-77
2022/11/07 17:01:51;;;;;;;4.20;1.97;;;;;;;15.38;65.76;98881.22;5159564;27;43758;-76
2022/11/07 17:04:19;;;;;;;4.63;2.13;;;;;;;15.34;66.03;98877.13;5159049;27;42074;-77
2022/11/07 17:06:47;;;;;;;5.20;2.20;;;;;;;15.31;66.64;98875.56;5159249;27;39099;-78
2022/11/07 17:09:18;;;;;;;4.43;2.30;;;;;;;15.30;66.65;98878.34;5142358;27;41651;-77
2022/11/07 17:11:46;;;;;;;3.70;1.90;;;;;;;15.29;66.82;98882.00;5142301;27;42826;-78
2022/11/07 17:14:13;;;;;;;4.40;1.93;;;;;;;15.30;66.75;98886.34;5142501;27;41143;-78
2022/11/07 17:16:44;;;;;;;3.60;1.70;;;;;;;15.29;66.60;98890.00;5178420;27;39671;-79
2022/11/07 17:19:14;;;;;;;5.50;2.10;;;;;;;15.29;66.59;98882.84;5178004;27;41391;-77
2022/11/07 17:21:45;;;;;;;1.83;1.50;;;;;;;15.27;66.78;98890.13;5141751;27;42815;-78
2022/11/07 17:24:13;;;;;;;3.00;1.43;;;;;;;15.26;66.93;98893.75;5174660;27;41902;-77
2022/11/07 17:26:40;;;;;;;3.20;1.90;;;;;;;15.26;66.71;98888.41;5158773;27;38882;-78
2022/11/07 17:29:11;;;;;;;5.57;1.70;;;;;;;15.25;66.52;98891.22;5159016;27;41768;-78
2022/11/07 17:31:40;;;;;;;4.50;2.07;;;;;;;15.11;66.59;98870.97;5158229;27;41911;-77
2022/11/07 17:34:08;;;;;;;4.57;1.90;;;;;;;15.19;66.46;98891.72;5141999;27;42591;-77
2022/11/07 17:36:44;;;;;;;9.13;2.63;;;;;;;15.12;67.12;98887.84;5177380;27;41125;-78
2022/11/07 17:39:15;;;;;;;2.43;1.70;;;;;;;15.02;67.01;98887.72;5158845;27;41250;-77
2022/11/07 17:41:44;;;;;;;2.93;1.77;;;;;;;14.92;67.40;98878.78;5177318;27;42711;-77
2022/11/07 17:44:13;;;;;;;4.67;1.80;;;;;;;14.85;67.60;98885.56;5159126;27;42424;-78
2022/11/07 17:46:43;;;;;;;3.37;1.87;;;;;;;14.77;67.67;98885.31;5158931;27;39906;-77
2022/11/07 17:49:13;;;;;;;4.10;2.30;;;;;;;14.70;67.57;98891.16;5177482;27;43301;-77
2022/11/07 17:51:43;;;;;;;3.30;1.83;;;;;;;14.64;67.55;98886.28;5156558;27;42968;-78
2022/11/07 17:54:12;;;;;;;2.67;1.80;;;;;;;14.60;67.74;98890.16;5158312;27;42945;-78
2022/11/07 17:56:41;;;;;;;3.57;2.33;;;;;;;14.56;68.40;98885.19;5177143;27;40885;-77
2022/11/07 17:59:13;;;;;;;3.50;2.23;;;;;;;14.53;67.78;98883.63;5158884;27;41587;-78
2022/11/07 18:01:41;;;;;;;4.37;2.13;;;;;;;14.47;68.46;98884.09;5141209;27;42438;-78
2022/11/07 18:04:12;;;;;;;4.30;2.20;;;;;;;14.44;68.47;98884.34;5157775;27;41441;-77
2022/11/07 18:06:42;;;;;;;5.43;2.30;;;;;;;14.41;68.50;98881.91;5158482;27;38836;-78
2022/11/07 18:09:14;;;;;;;4.77;3.07;;;;;;;14.38;68.62;98884.78;5172858;27;41644;-78
2022/11/07 18:11:42;;;;;;;6.70;3.43;;;;;;;14.35;69.35;98879.69;5172190;27;44111;-78
2022/11/07 18:14:12;;;;;;;6.53;3.50;;;;;;;14.23;68.86;98869.97;5157634;27;42798;-79
2022/11/07 18:16:39;;;;;;;5.83;3.57;;;;;;;14.29;69.20;98880.16;5152090;27;38793;-78
2022/11/07 18:19:07;;;;;;;5.40;2.80;;;;;;;14.28;68.92;98889.13;5177863;27;41518;-78
2022/11/07 18:21:34;;;;;;;4.83;2.80;;;;;;;14.12;68.95;98853.97;5176222;27;42090;-78
2022/11/07 18:24:03;;;;;;;4.13;1.90;;;;;;;14.25;68.73;98884.03;5197447;27;43226;-78
2022/11/07 18:26:33;;;;;;;3.30;1.93;;;;;;;14.24;68.95;98888.50;5193901;27;39953;-80
2022/11/07 18:29:03;;;;;;;3.27;1.80;;;;;;;14.21;68.79;98887.91;5178349;27;42544;-79
2022/11/07 18:31:32;;;;;;;2.40;1.83;;;;;;;14.10;69.16;98874.53;5176173;27;42409;-81
2022/11/07 18:34:01;;;;;;;3.83;2.23;;;;;;;14.17;69.00;98886.44;5196596;27;42166;-77
2022/11/07 18:36:30;;;;;;;3.30;1.80;;;;;;;14.14;69.22;98897.31;5172301;27;39951;-79
2022/11/07 18:39:03;;;;;;;2.57;2.00;;;;;;;14.10;69.49;98890.50;5178187;27;41070;-77
2022/11/07 18:41:31;;;;;;;4.27;2.10;;;;;;;14.05;69.49;98892.69;5167765;27;44172;-79
2022/11/07 18:43:59;;;;;;;4.23;2.33;;;;;;;13.99;69.79;98894.84;5192796;27;42098;-77
2022/11/07 18:46:26;;;;;;;4.97;3.00;;;;;;;13.92;70.04;98885.63;5158509;27;39855;-77
2022/11/07 18:48:54;;;;;;;4.93;2.67;;;;;;;13.85;70.39;98881.72;5196159;27;41634;-79
2022/11/07 18:51:23;;;;;;;4.60;2.90;;;;;;;13.78;70.65;98884.97;5194388;27;42812;-79
2022/11/07 18:53:53;;;;;;;5.27;3.47;;;;;;;13.70;70.82;98893.56;5196393;27;42200;-80
2022/11/07 18:56:22;;;;;;;5.00;2.73;;;;;;;13.59;71.14;98893.50;5157282;27;42171;-80
2022/11/07 18:58:50;;;;;;;5.07;3.10;;;;;;;13.55;70.66;98892.03;5158955;27;40651;-79
2022/11/07 19:01:20;;;;;;;6.07;3.10;;;;;;;13.48;71.18;98893.41;5175294;27;42765;-77
2022/11/07 19:03:48;;;;;;;5.43;3.10;;;;;;;13.40;71.25;98890.47;5195812;27;41999;-76
2022/11/07 19:06:17;;;;;;;4.57;2.70;;;;;;;13.34;71.66;98885.63;5194133;27;40033;-79
2022/11/07 19:08:46;;;;;;;6.87;4.20;;;;;;;13.26;72.49;98887.03;5196105;27;41812;-78
2022/11/07 19:11:16;;;;;;;8.33;4.70;;;;;;;13.21;72.38;98897.16;5156617;27;42903;-78
2022/11/07 19:13:46;;;;;;;9.27;6.03;;;;;;;13.14;73.08;98879.94;5195863;27;42294;-77
2022/11/07 19:16:15;;;;;;;8.57;5.77;;;;;;;13.08;73.27;98883.03;5156454;27;38992;-78
2022/11/07 19:18:43;;;;;;;8.63;5.40;;;;;;;13.03;73.37;98885.16;5176530;27;42201;-79
2022/11/07 19:21:11;;;;;;;9.10;6.20;;;;;;;12.97;73.90;98877.63;5157338;27;42962;-78